Time;durP1;ratioP1;P1;durP2;ratioP2;P2;SDS_P1;SDS_P2;PMS_P1;PMS_P2;Temp;Humidity;BMP_temperature;BMP_pressure;BME280_temperature;BME280_humidity;BME280_pressure;Samples;Min_cycle;Max_cycle;Signal;HPM_P1;HPM_P2
2023/04/22 00:00:54;;;;;;;20.03;11.20;;;8.40;99.90;;;;;;5051152;28;20327;-53
2023/04/22 00:03:23;;;;;;;18.13;10.20;;;8.50;99.90;;;;;;5050503;28;20182;-54
2023/04/22 00:05:49;;;;;;;18.20;10.73;;;8.40;99.90;;;;;;5050536;28;20072;-49
2023/04/22 00:08:14;;;;;;;20.17;10.70;;;8.40;99.90;;;;;;5050402;28;20064;-53
2023/04/22 00:10:40;;;;;;;16.20;10.10;;;8.40;99.90;;;;;;5050661;28;20036;-54
2023/04/22 00:13:06;;;;;;;17.07;10.90;;;8.40;99.90;;;;;;5050720;28;20079;-55
2023/04/22 00:15:32;;;;;;;19.73;10.80;;;8.40;99.90;;;;;;5050351;28;20039;-55
2023/04/22 00:17:58;;;;;;;16.07;10.17;;;8.50;99.90;;;;;;5050001;28;20044;-54
2023/04/22 00:20:24;;;;;;;18.13;10.37;;;8.50;99.90;;;;;;5050311;28;20025;-55
2023/04/22 00:22:50;;;;;;;21.83;11.23;;;8.60;99.90;;;;;;5050494;28;20024;-54
2023/04/22 00:25:16;;;;;;;19.37;10.83;;;8.60;99.90;;;;;;5050375;28;20079;-54
2023/04/22 00:27:42;;;;;;;19.93;11.27;;;8.60;99.90;;;;;;5050363;28;20075;-52
2023/04/22 00:30:08;;;;;;;20.57;11.00;;;8.60;99.90;;;;;;5032598;28;20036;-57
2023/04/22 00:32:34;;;;;;;17.17;10.23;;;8.50;99.90;;;;;;5050380;28;20032;-55
2023/04/22 00:35:00;;;;;;;18.87;10.67;;;8.50;99.90;;;;;;5050005;28;20087;-55
2023/04/22 00:37:25;;;;;;;17.33;10.50;;;8.50;99.90;;;;;;5050299;28;20385;-54
2023/04/22 00:39:51;;;;;;;19.50;11.77;;;8.60;99.90;;;;;;5050386;28;20106;-55
2023/04/22 00:42:17;;;;;;;18.73;11.37;;;8.50;99.90;;;;;;5032342;28;20029;-51
2023/04/22 00:44:46;;;;;;;16.83;10.53;;;8.60;99.90;;;;;;5032037;28;20029;-55
2023/04/22 00:47:11;;;;;;;17.40;10.47;;;8.60;99.90;;;;;;5032024;28;20060;-53
2023/04/22 00:49:38;;;;;;;17.90;10.67;;;8.60;99.90;;;;;;5050191;28;20071;-55
2023/04/22 00:52:04;;;;;;;19.40;10.97;;;8.60;99.90;;;;;;5050512;28;20393;-54
2023/04/22 00:54:32;;;;;;;19.07;11.03;;;8.60;99.90;;;;;;5032089;28;20029;-53
2023/04/22 00:56:58;;;;;;;20.60;11.53;;;8.60;99.90;;;;;;5032232;28;20059;-55
2023/04/22 00:59:24;;;;;;;20.63;12.40;;;8.60;99.90;;;;;;5050267;28;20053;-55
2023/04/22 01:01:51;;;;;;;17.10;10.80;;;8.60;99.90;;;;;;5050226;28;20550;-55
2023/04/22 01:04:17;;;;;;;21.00;12.17;;;8.50;99.90;;;;;;5049912;28;20116;-54
2023/04/22 01:06:44;;;;;;;18.97;11.70;;;8.50;99.90;;;;;;5050167;28;20325;-50
2023/04/22 01:09:10;;;;;;;18.97;11.77;;;8.50;99.90;;;;;;5032502;28;20040;-50
2023/04/22 01:11:35;;;;;;;17.60;10.27;;;8.50;99.90;;;;;;5032483;28;20033;-55
2023/04/22 01:14:03;;;;;;;17.37;10.53;;;8.50;99.90;;;;;;5031918;28;20040;-54
2023/04/22 01:16:32;;;;;;;18.20;10.73;;;8.40;99.90;;;;;;5049789;28;20029;-54
2023/04/22 01:18:59;;;;;;;17.07;10.20;;;8.40;99.90;;;;;;5049938;28;20099;-56
2023/04/22 01:21:26;;;;;;;19.00;10.90;;;8.40;99.90;;;;;;5032268;28;20074;-54
2023/04/22 01:23:52;;;;;;;18.70;10.70;;;8.40;99.90;;;;;;5032087;28;20029;-55
2023/04/22 01:26:18;;;;;;;21.43;11.67;;;8.40;99.90;;;;;;5049867;28;20513;-53
2023/04/22 01:28:44;;;;;;;20.47;12.10;;;8.40;99.90;;;;;;5031940;28;20087;-53
2023/04/22 01:31:11;;;;;;;19.37;11.80;;;8.40;99.90;;;;;;5033865;28;20029;-53
2023/04/22 01:33:37;;;;;;;19.50;11.03;;;8.40;99.90;;;;;;5035592;28;20060;-54
2023/04/22 01:36:03;;;;;;;19.40;11.50;;;8.30;99.90;;;;;;5053561;28;20052;-53
2023/04/22 01:38:32;;;;;;;18.77;11.43;;;8.30;99.90;;;;;;5053367;28;20053;-53
2023/04/22 01:40:59;;;;;;;20.92;11.15;;;8.30;99.90;;;;;;5035820;28;20094;-53
2023/04/22 01:43:25;;;;;;;20.33;11.30;;;8.30;99.90;;;;;;5035403;28;20037;-52
2023/04/22 01:45:52;;;;;;;20.03;11.60;;;8.30;99.90;;;;;;5035443;28;20048;-52
2023/04/22 01:48:17;;;;;;;19.17;11.20;;;8.20;99.90;;;;;;5053608;28;20029;-55
2023/04/22 01:50:43;;;;;;;20.13;11.57;;;8.30;99.90;;;;;;5053482;28;20128;-54
2023/04/22 01:53:12;;;;;;;18.48;10.75;;;8.30;99.90;;;;;;5035487;28;20040;-51
2023/04/22 01:55:38;;;;;;;21.67;12.13;;;8.30;99.90;;;;;;5053280;28;20021;-53
2023/04/22 01:58:04;;;;;;;20.77;11.73;;;8.30;99.90;;;;;;5053279;28;20524;-53
2023/04/22 02:00:30;;;;;;;19.57;11.90;;;8.30;99.90;;;;;;5035365;28;20025;-55
2023/04/22 02:02:56;;;;;;;19.77;11.43;;;8.30;99.90;;;;;;5053561;28;20036;-54
2023/04/22 02:05:24;;;;;;;20.03;11.70;;;8.30;99.90;;;;;;5035231;28;20081;-54
2023/04/22 02:07:52;;;;;;;19.10;11.83;;;8.30;99.90;;;;;;5053021;28;20052;-54
2023/04/22 02:10:18;;;;;;;21.07;12.27;;;8.30;99.90;;;;;;5053269;28;20035;-55
2023/04/22 02:12:44;;;;;;;73.50;57.77;;;8.30;99.90;;;;;;5053152;28;20033;-54
2023/04/22 02:15:10;;;;;;;48.93;37.00;;;8.30;99.90;;;;;;5034890;28;20036;-55
2023/04/22 02:17:36;;;;;;;32.67;21.20;;;8.20;99.90;;;;;;5053130;28;20025;-56
2023/04/22 02:20:04;;;;;;;23.13;14.73;;;8.20;99.90;;;;;;5053075;28;20028;-53
2023/04/22 02:22:31;;;;;;;25.13;14.87;;;8.20;99.90;;;;;;5053096;28;20025;-52
2023/04/22 02:24:57;;;;;;;22.90;12.93;;;8.20;99.90;;;;;;5052802;28;20025;-55
2023/04/22 02:27:22;;;;;;;20.87;13.27;;;8.20;99.90;;;;;;5052750;28;20044;-54
2023/04/22 02:29:48;;;;;;;24.00;13.20;;;8.30;99.90;;;;;;5034991;28;20044;-54
2023/04/22 02:32:16;;;;;;;19.00;11.40;;;8.30;99.90;;;;;;5034948;28;20128;-55
2023/04/22 02:34:42;;;;;;;21.60;13.17;;;8.30;99.90;;;;;;5034433;28;20120;-54
2023/04/22 02:37:09;;;;;;;24.80;14.03;;;8.30;99.90;;;;;;5052639;28;20099;-52
2023/04/22 02:39:35;;;;;;;23.20;13.10;;;8.40;99.90;;;;;;5034748;28;20025;-54
2023/04/22 02:42:01;;;;;;;19.07;11.53;;;8.40;99.90;;;;;;5034137;28;20025;-54
2023/04/22 02:44:27;;;;;;;22.00;12.10;;;8.40;99.90;;;;;;5034400;28;20132;-53
2023/04/22 02:46:53;;;;;;;22.20;12.53;;;8.40;99.90;;;;;;5034369;28;20151;-54
2023/04/22 02:49:18;;;;;;;22.47;10.63;;;8.40;99.90;;;;;;5052426;28;20025;-51
2023/04/22 02:51:44;;;;;;;18.83;11.60;;;8.40;99.90;;;;;;5052504;28;20108;-53
2023/04/22 02:54:10;;;;;;;21.97;12.53;;;8.40;99.90;;;;;;5052130;28;20464;-53
2023/04/22 02:56:35;;;;;;;20.67;12.03;;;8.50;99.90;;;;;;5051899;28;20036;-52
2023/04/22 02:59:01;;;;;;;25.27;14.47;;;8.50;99.90;;;;;;5034151;28;20032;-53
2023/04/22 03:01:27;;;;;;;29.37;18.33;;;8.50;99.90;;;;;;5052152;28;20072;-55
2023/04/22 03:03:56;;;;;;;;;;;8.50;99.90;;;;;;5034459;28;20029;-56
2023/04/22 03:06:22;;;;;;;23.57;14.27;;;8.50;99.90;;;;;;5033859;28;19950;-55
2023/04/22 03:08:48;;;;;;;21.93;14.67;;;8.50;99.90;;;;;;5034004;28;20056;-55
2023/04/22 03:11:14;;;;;;;21.97;14.97;;;8.50;99.90;;;;;;5017372;28;20087;-52
2023/04/22 03:13:41;;;;;;;21.80;15.47;;;8.50;99.90;;;;;;5033557;28;20120;-54
2023/04/22 03:16:07;;;;;;;21.00;14.77;;;8.50;99.90;;;;;;5033814;28;20120;-52
2023/04/22 03:18:32;;;;;;;26.03;17.20;;;8.50;99.90;;;;;;5033491;28;20071;-56
2023/04/22 03:20:59;;;;;;;21.30;15.10;;;8.50;99.90;;;;;;5052015;28;20445;-56
2023/04/22 03:23:25;;;;;;;22.20;16.07;;;8.50;99.90;;;;;;5033401;28;20040;-56
2023/04/22 03:25:51;;;;;;;23.87;18.00;;;8.50;99.90;;;;;;5033467;28;20033;-53
2023/04/22 03:28:17;;;;;;;28.03;20.10;;;8.50;99.90;;;;;;5033325;28;20495;-54
2023/04/22 03:30:43;;;;;;;22.70;16.97;;;8.50;99.90;;;;;;5033444;28;20103;-55
2023/04/22 03:33:10;;;;;;;22.30;15.80;;;8.60;99.90;;;;;;5033364;28;20040;-51
2023/04/22 03:35:41;;;;;;;19.50;12.93;;;8.60;99.90;;;;;;5032994;28;20033;-54
2023/04/22 03:38:07;;;;;;;20.93;14.60;;;8.60;99.90;;;;;;5051031;28;20017;-53
2023/04/22 03:40:35;;;;;;;18.25;14.23;;;8.60;99.90;;;;;;5033228;28;20021;-54
2023/04/22 03:43:07;;;;;;;21.17;14.87;;;8.60;99.90;;;;;;5033220;28;20037;-54
2023/04/22 03:45:34;;;;;;;22.00;13.40;;;8.60;99.90;;;;;;5032872;28;20150;-55
2023/04/22 03:48:19;;;;;;;17.57;12.17;;;8.60;99.90;;;;;;5032951;28;20025;-54
2023/04/22 03:50:48;;;;;;;18.75;12.32;;;8.60;99.90;;;;;;5033085;28;20036;-54
2023/04/22 03:53:14;;;;;;;18.83;11.73;;;8.70;99.90;;;;;;5032258;28;20037;-55
2023/04/22 03:55:40;;;;;;;16.57;10.93;;;8.60;99.90;;;;;;5032885;28;20128;-56
2023/04/22 03:58:06;;;;;;;15.00;10.93;;;8.70;99.90;;;;;;5051156;28;20537;-55
2023/04/22 04:00:32;;;;;;;16.57;11.13;;;8.70;99.90;;;;;;5033012;28;20040;-54
2023/04/22 04:03:13;;;;;;;16.87;10.87;;;8.70;99.90;;;;;;5032958;28;20033;-56
2023/04/22 04:05:39;;;;;;;15.70;9.73;;;8.70;99.90;;;;;;5032595;28;20039;-55
2023/04/22 04:08:04;;;;;;;18.87;10.80;;;8.70;99.90;;;;;;5050627;28;20025;-56
2023/04/22 04:10:31;;;;;;;15.57;10.40;;;8.70;99.90;;;;;;5032855;28;20119;-56
2023/04/22 04:12:58;;;;;;;16.63;10.23;;;8.70;99.90;;;;;;5032658;28;20488;-55
2023/04/22 04:15:25;;;;;;;14.97;9.50;;;8.80;99.90;;;;;;5032547;28;20075;-55
2023/04/22 04:17:52;;;;;;;16.80;10.30;;;8.70;99.90;;;;;;5032457;28;20025;-53
2023/04/22 04:20:19;;;;;;;14.63;10.43;;;8.80;99.90;;;;;;5032637;28;20033;-54
2023/04/22 04:22:45;;;;;;;16.33;9.77;;;8.80;99.90;;;;;;5032839;28;20029;-54
2023/04/22 04:25:11;;;;;;;16.20;10.23;;;8.80;99.90;;;;;;5050241;28;20028;-53
2023/04/22 04:27:41;;;;;;;14.20;9.50;;;8.80;99.90;;;;;;5032389;28;20481;-53
2023/04/22 04:30:09;;;;;;;16.00;9.52;;;8.80;99.90;;;;;;5032589;28;20040;-55
2023/04/22 04:32:44;;;;;;;14.07;8.97;;;8.80;99.90;;;;;;5032386;28;20045;-55
2023/04/22 04:35:13;;;;;;;14.13;9.80;;;8.80;99.90;;;;;;5032041;28;20045;-56
2023/04/22 04:37:43;;;;;;;16.23;9.65;;;8.80;99.90;;;;;;5032305;28;20033;-52
2023/04/22 04:40:11;;;;;;;14.10;9.32;;;8.90;99.90;;;;;;5032394;28;20116;-56
2023/04/22 04:42:57;;;;;;;14.07;9.30;;;8.90;99.90;;;;;;5049452;28;20489;-56
2023/04/22 04:45:29;;;;;;;13.57;9.07;;;8.90;99.90;;;;;;5032046;28;20090;-53
2023/04/22 04:47:57;;;;;;;13.20;9.07;;;8.90;99.90;;;;;;5032327;28;20032;-50
2023/04/22 04:50:27;;;;;;;13.63;9.10;;;8.90;99.90;;;;;;5032535;28;20029;-56
2023/04/22 04:52:56;;;;;;;13.00;8.77;;;9.00;99.90;;;;;;5032239;28;20036;-55
2023/04/22 04:55:29;;;;;;;13.57;8.03;;;9.00;99.90;;;;;;5031842;28;20021;-54
2023/04/22 04:57:54;;;;;;;11.63;8.30;;;9.00;99.90;;;;;;5049833;28;20029;-56
2023/04/22 05:00:21;;;;;;;13.30;8.17;;;9.00;99.90;;;;;;5032208;28;20116;-55
2023/04/22 05:02:47;;;;;;;11.87;8.33;;;9.00;99.90;;;;;;5032152;28;20490;-53
2023/04/22 05:05:13;;;;;;;13.83;8.43;;;9.10;99.90;;;;;;5033684;28;20074;-56
2023/04/22 05:07:41;;;;;;;16.37;9.13;;;9.10;99.90;;;;;;5035928;28;20025;-55
2023/04/22 05:10:08;;;;;;;13.70;9.20;;;9.10;99.90;;;;;;5035926;28;20025;-54
2023/04/22 05:12:35;;;;;;;14.60;8.97;;;9.10;99.90;;;;;;5035961;28;20031;-49
2023/04/22 05:15:01;;;;;;;13.43;8.30;;;9.20;99.90;;;;;;5035547;28;20040;-53
2023/04/22 05:17:28;;;;;;;13.23;8.70;;;9.30;99.90;;;;;;5035639;28;20523;-53
2023/04/22 05:19:54;;;;;;;14.57;9.60;;;9.30;99.90;;;;;;5035834;28;20112;-53
2023/04/22 05:22:20;;;;;;;13.13;9.03;;;9.30;99.90;;;;;;5035771;28;20052;-54
2023/04/22 05:24:47;;;;;;;10.80;7.63;;;9.30;99.90;;;;;;5035422;28;20025;-55
2023/04/22 05:27:13;;;;;;;18.17;9.03;;;9.40;99.90;;;;;;5035439;28;20030;-55
2023/04/22 05:29:39;;;;;;;10.43;7.37;;;9.40;99.90;;;;;;5053817;28;20486;-52
2023/04/22 05:32:07;;;;;;;10.20;8.03;;;9.50;99.90;;;;;;5035699;28;20393;-54
2023/04/22 05:34:34;;;;;;;11.60;8.07;;;9.50;99.90;;;;;;5035301;28;20029;-55
2023/04/22 05:37:02;;;;;;;10.37;7.20;;;9.60;99.90;;;;;;5035331;28;20497;-55
2023/04/22 05:39:29;;;;;;;10.52;6.38;;;9.60;99.90;;;;;;5035523;28;20056;-53
2023/04/22 05:41:57;;;;;;;9.77;6.00;;;9.70;99.90;;;;;;5035344;28;20029;-56
2023/04/22 05:44:23;;;;;;;6.97;4.97;;;9.80;99.90;;;;;;5034999;28;20162;-54
2023/04/22 05:46:49;;;;;;;8.17;4.30;;;9.90;99.90;;;;;;5053007;28;20049;-56
2023/04/22 05:49:16;;;;;;;6.23;4.13;;;10.10;99.90;;;;;;5035310;28;20493;-56
2023/04/22 05:52:17;;;;;;;6.77;4.00;;;10.30;99.90;;;;;;5026969;28;20505;-55
2023/04/22 05:55:22;;;;;;;6.43;4.13;;;10.50;99.90;;;;;;5040426;28;20076;-55
2023/04/22 05:57:47;;;;;;;5.57;3.70;;;10.50;99.90;;;;;;5052694;28;20067;-54
2023/04/22 06:00:37;;;;;;;5.97;3.77;;;10.60;99.90;;;;;;5021916;28;20041;-53
2023/04/22 06:03:18;;;;;;;6.17;4.23;;;10.70;99.90;;;;;;5035158;28;20025;-53
2023/04/22 06:05:44;;;;;;;6.10;4.10;;;10.80;99.90;;;;;;5052977;28;20546;-54
2023/04/22 06:08:11;;;;;;;7.67;4.00;;;10.90;99.90;;;;;;5034775;28;20291;-56
2023/04/22 06:10:37;;;;;;;8.10;4.00;;;10.90;99.90;;;;;;5034887;28;20037;-50
2023/04/22 06:13:03;;;;;;;6.67;3.87;;;11.00;99.90;;;;;;5034684;28;20021;-52
2023/04/22 06:15:29;;;;;;;8.10;3.53;;;11.10;99.90;;;;;;5034628;28;20436;-55
2023/04/22 06:17:55;;;;;;;9.93;4.97;;;11.20;99.90;;;;;;5033819;28;20055;-53
2023/04/22 06:20:21;;;;;;;5.37;3.30;;;11.30;99.90;;;;;;5034610;28;20112;-55
2023/04/22 06:22:46;;;;;;;5.50;3.43;;;11.50;99.90;;;;;;5052551;28;20037;-56
2023/04/22 06:25:12;;;;;;;3.87;2.63;;;11.70;99.90;;;;;;5034432;28;20117;-55
2023/04/22 06:27:38;;;;;;;7.67;3.60;;;11.70;99.90;;;;;;5034269;28;20444;-56
2023/04/22 06:30:05;;;;;;;5.40;3.27;;;11.80;99.90;;;;;;5034297;28;20029;-54
2023/04/22 06:32:31;;;;;;;4.17;3.10;;;11.80;99.90;;;;;;5034520;28;20454;-55
2023/04/22 06:34:56;;;;;;;4.53;2.80;;;11.90;99.90;;;;;;5034023;28;20295;-56
2023/04/22 06:37:23;;;;;;;4.13;2.55;;;12.10;99.90;;;;;;5034092;28;20057;-56
2023/04/22 06:39:49;;;;;;;4.13;2.63;;;12.30;99.90;;;;;;5052191;28;20132;-55
2023/04/22 06:42:33;;;;;;;4.60;2.85;;;12.60;99.90;;;;;;5052268;28;20043;-56
2023/04/22 06:45:28;;;;;;;4.15;2.22;;;12.80;99.90;;;;;;4946134;28;20516;-54
2023/04/22 06:48:15;;;;;;;5.47;3.90;;;13.10;99.90;;;;;;5034088;28;20029;-55
2023/04/22 06:51:01;;;;;;;5.05;3.97;;;13.40;99.90;;;;;;5051943;28;20033;-56
2023/04/22 06:53:27;;;;;;;4.78;3.00;;;13.60;99.90;;;;;;5033877;28;20032;-56
2023/04/22 06:55:53;;;;;;;5.20;2.50;;;14.00;99.90;;;;;;5034072;28;20108;-55
2023/04/22 06:58:20;;;;;;;3.85;2.30;;;14.40;99.90;;;;;;5033719;28;20535;-57
2023/04/22 07:00:47;;;;;;;4.32;2.08;;;14.80;99.90;;;;;;5034026;28;20378;-56
2023/04/22 07:03:13;;;;;;;3.28;2.17;;;15.20;99.90;;;;;;5051880;28;20044;-55
2023/04/22 07:05:39;;;;;;;3.65;2.30;;;15.40;99.90;;;;;;5033646;28;20509;-54
2023/04/22 07:08:05;;;;;;;2.95;1.92;;;15.50;99.90;;;;;;5033578;28;20456;-54
2023/04/22 07:10:30;;;;;;;2.90;1.98;;;15.40;99.90;;;;;;5051564;28;20040;-54
2023/04/22 07:13:26;;;;;;;5.00;1.98;;;15.50;99.90;;;;;;5033393;28;20100;-55
2023/04/22 07:15:52;;;;;;;3.50;1.90;;;15.60;99.90;;;;;;5051436;28;20505;-55
2023/04/22 07:18:17;;;;;;;3.58;2.40;;;15.70;99.90;;;;;;5051338;28;20029;-55
2023/04/22 07:20:43;;;;;;;3.65;2.05;;;15.80;99.90;;;;;;5051379;28;20025;-55
2023/04/22 07:23:09;;;;;;;3.03;1.98;;;16.00;99.90;;;;;;5051377;28;20036;-54
2023/04/22 07:25:34;;;;;;;3.88;2.13;;;16.20;99.90;;;;;;5051088;28;20062;-55
2023/04/22 07:28:00;;;;;;;5.28;1.77;;;16.30;99.90;;;;;;5051101;28;20032;-55
2023/04/22 07:30:26;;;;;;;2.38;1.55;;;16.40;99.90;;;;;;5051303;28;20047;-56
2023/04/22 07:32:52;;;;;;;3.17;1.50;;;16.70;99.90;;;;;;5051256;28;20048;-56
2023/04/22 07:35:17;;;;;;;3.67;1.98;;;16.70;99.90;;;;;;5066438;22;20460;-50
2023/04/22 07:37:43;;;;;;;4.72;2.00;;;16.80;99.90;;;;;;5086593;28;20033;-48
2023/04/22 07:40:10;;;;;;;5.93;2.15;;;16.70;99.90;;;;;;5071190;28;20078;-50
2023/04/22 07:42:38;;;;;;;4.85;1.80;;;16.60;99.90;;;;;;5071250;28;20031;-48
2023/04/22 07:45:04;;;;;;;3.40;2.08;;;16.90;99.90;;;;;;5070879;28;20431;-48
2023/04/22 07:47:30;;;;;;;3.22;1.77;;;17.10;99.90;;;;;;5070843;28;20064;-49
2023/04/22 07:49:55;;;;;;;5.82;1.92;;;17.10;99.90;;;;;;5070880;28;20070;-46
2023/04/22 07:52:21;;;;;;;4.57;2.10;;;17.30;99.90;;;;;;5070879;28;20029;-47
2023/04/22 07:54:47;;;;;;;4.97;1.98;;;17.50;99.90;;;;;;5070513;28;20033;-47
2023/04/22 07:57:12;;;;;;;10.48;7.63;;;17.90;99.90;;;;;;5070720;28;20098;-47
2023/04/22 07:59:38;;;;;;;4.28;2.20;;;18.20;99.90;;;;;;5070839;28;20115;-49
2023/04/22 08:02:04;;;;;;;3.47;2.00;;;18.10;99.90;;;;;;5070896;28;20020;-49
2023/04/22 08:04:30;;;;;;;4.15;2.72;;;18.00;99.90;;;;;;5070517;28;20423;-49
2023/04/22 08:06:56;;;;;;;2.10;1.58;;;18.00;99.90;;;;;;5070661;28;20036;-52
2023/04/22 08:09:22;;;;;;;3.28;2.00;;;17.90;99.90;;;;;;5070812;28;20504;-47
2023/04/22 08:11:47;;;;;;;3.22;1.70;;;17.80;99.90;;;;;;5070761;28;20025;-48
2023/04/22 08:14:13;;;;;;;4.15;2.25;;;18.10;99.90;;;;;;5070348;28;20081;-50
2023/04/22 08:16:41;;;;;;;2.60;1.50;;;18.10;99.40;;;;;;5070273;28;20107;-49
2023/04/22 08:19:07;;;;;;;3.90;1.50;;;18.10;99.60;;;;;;5070445;28;20023;-49
2023/04/22 08:21:35;;;;;;;3.35;2.25;;;18.30;99.70;;;;;;5070473;28;20807;-50
2023/04/22 08:24:01;;;;;;;3.03;1.77;;;18.30;99.20;;;;;;5070314;28;20024;-48
2023/04/22 08:26:27;;;;;;;6.55;2.17;;;18.40;98.80;;;;;;5070500;28;20123;-48
2023/04/22 08:28:53;;;;;;;4.43;1.80;;;18.40;98.40;;;;;;5070413;28;20032;-47
2023/04/22 08:31:19;;;;;;;2.80;1.77;;;18.30;98.80;;;;;;5070531;28;20086;-47
2023/04/22 08:33:44;;;;;;;3.05;1.70;;;18.30;98.70;;;;;;5070080;28;20099;-48
2023/04/22 08:36:10;;;;;;;3.00;1.70;;;18.20;98.60;;;;;;5070343;28;20373;-49
2023/04/22 08:38:36;;;;;;;3.97;1.75;;;18.20;98.10;;;;;;5070113;28;20074;-50
2023/04/22 08:41:04;;;;;;;2.88;1.92;;;18.20;98.90;;;;;;5076618;28;20362;-48
2023/04/22 08:43:31;;;;;;;2.33;1.60;;;18.40;98.50;;;;;;5076924;28;20036;-49
2023/04/22 08:45:57;;;;;;;3.17;1.73;;;18.40;98.70;;;;;;5076901;28;20036;-46
2023/04/22 08:48:24;;;;;;;4.50;1.80;;;18.60;97.90;;;;;;5076648;28;20032;-49
2023/04/22 08:50:50;;;;;;;4.15;1.70;;;18.60;98.00;;;;;;5077013;28;20032;-50
2023/04/22 08:53:16;;;;;;;4.82;2.13;;;18.60;97.60;;;;;;5076981;28;20047;-47
2023/04/22 08:55:43;;;;;;;4.22;1.90;;;18.70;97.90;;;;;;5076748;28;20099;-48
2023/04/22 08:58:12;;;;;;;3.85;2.30;;;18.70;97.40;;;;;;5076653;28;20025;-47
2023/04/22 09:00:41;;;;;;;4.38;1.73;;;18.60;96.70;;;;;;5076794;28;20024;-49
2023/04/22 09:03:08;;;;;;;6.05;1.95;;;18.70;96.50;;;;;;5076960;28;20024;-47
2023/04/22 09:05:36;;;;;;;3.45;2.03;;;18.80;96.50;;;;;;5076470;28;20032;-48
2023/04/22 09:08:02;;;;;;;3.45;1.88;;;19.00;96.20;;;;;;5076484;28;20028;-47
2023/04/22 09:10:31;;;;;;;3.35;1.80;;;19.20;95.80;;;;;;5076700;28;20086;-51
2023/04/22 09:12:57;;;;;;;;;;;19.50;97.80;;;;;;5077170;28;20433;-50
2023/04/22 09:15:24;;;;;;;4.05;2.08;;;19.60;95.80;;;;;;5076396;28;19915;-48
2023/04/22 09:17:52;;;;;;;4.40;2.17;;;19.60;95.20;;;;;;5076464;28;20035;-47
2023/04/22 09:20:24;;;;;;;3.15;1.90;;;19.20;94.90;;;;;;5076761;28;20029;-46
2023/04/22 09:22:51;;;;;;;6.63;2.08;;;19.30;95.80;;;;;;5076639;28;20130;-48
2023/04/22 09:25:22;;;;;;;2.88;1.55;;;19.40;95.00;;;;;;5076324;28;20119;-47
2023/04/22 09:27:52;;;;;;;5.13;2.25;;;19.40;95.10;;;;;;5076321;28;20038;-47
2023/04/22 09:30:27;;;;;;;4.03;1.70;;;19.60;94.80;;;;;;5076585;28;20043;-50
2023/04/22 09:32:55;;;;;;;5.15;1.90;;;19.60;95.30;;;;;;5076687;28;20021;-47
2023/04/22 09:35:30;;;;;;;3.15;1.77;;;19.60;96.00;;;;;;5076103;28;20032;-50
2023/04/22 09:37:57;;;;;;;4.07;1.92;;;19.80;94.50;;;;;;5076365;28;20055;-49
2023/04/22 09:40:24;;;;;;;3.40;1.65;;;20.00;94.10;;;;;;5076277;28;20033;-50
2023/04/22 09:42:51;;;;;;;4.20;2.00;;;20.30;93.60;;;;;;5076691;28;20027;-48
2023/04/22 09:45:30;;;;;;;4.45;1.90;;;20.60;93.20;;;;;;5076228;28;20033;-46
2023/04/22 09:47:59;;;;;;;4.43;1.90;;;21.00;91.90;;;;;;5076771;28;20484;-47
2023/04/22 09:50:26;;;;;;;4.03;1.85;;;21.00;92.40;;;;;;5075927;28;20043;-49
2023/04/22 09:53:00;;;;;;;5.13;2.08;;;21.10;92.60;;;;;;5072157;28;20086;-49
2023/04/22 09:55:28;;;;;;;3.90;1.80;;;21.20;91.40;;;;;;5073193;28;20041;-48
2023/04/22 09:57:55;;;;;;;4.30;2.03;;;21.40;91.60;;;;;;5073130;28;20150;-50
2023/04/22 10:00:24;;;;;;;3.88;1.75;;;21.50;91.00;;;;;;5073202;28;20039;-49
2023/04/22 10:02:50;;;;;;;2.55;1.58;;;21.30;90.70;;;;;;5072991;28;20028;-46
2023/04/22 10:05:16;;;;;;;3.28;1.60;;;21.50;90.70;;;;;;5072601;28;20033;-48
2023/04/22 10:07:43;;;;;;;4.15;1.90;;;21.60;90.10;;;;;;5072826;28;20435;-47
2023/04/22 10:10:09;;;;;;;4.05;1.92;;;21.90;89.20;;;;;;5072869;28;20031;-49
2023/04/22 10:12:36;;;;;;;4.90;2.15;;;22.10;89.30;;;;;;5072812;28;20408;-49
2023/04/22 10:15:06;;;;;;;3.78;2.05;;;22.00;88.40;;;;;;5072527;28;20033;-46
2023/04/22 10:17:35;;;;;;;3.13;1.70;;;21.50;88.60;;;;;;5072682;28;20388;-46
2023/04/22 10:20:05;;;;;;;3.08;1.90;;;21.30;90.00;;;;;;5072639;28;20028;-48
2023/04/22 10:22:33;;;;;;;2.97;1.77;;;21.50;89.60;;;;;;5072991;28;20029;-48
2023/04/22 10:24:59;;;;;;;2.70;1.80;;;21.70;89.50;;;;;;5072662;28;20039;-46
2023/04/22 10:27:24;;;;;;;3.80;2.10;;;22.20;88.90;;;;;;5072487;28;20508;-46
2023/04/22 10:29:50;;;;;;;5.15;2.47;;;22.80;87.40;;;;;;5072644;28;20036;-48
2023/04/22 10:32:19;;;;;;;3.28;2.28;;;23.40;85.50;;;;;;5072395;28;20024;-47
2023/04/22 10:34:48;;;;;;;4.53;1.98;;;24.00;81.90;;;;;;5072176;28;20389;-46
2023/04/22 10:37:18;;;;;;;3.50;2.03;;;24.10;81.30;;;;;;5072153;28;20032;-47
2023/04/22 10:40:06;;;;;;;3.95;1.90;;;24.60;79.60;;;;;;5072530;28;20024;-49
2023/04/22 10:42:32;;;;;;;;;;;25.20;77.20;;;;;;5073486;28;20468;-49
2023/04/22 10:45:03;;;;;;;4.82;2.25;;;25.30;75.10;;;;;;5072099;28;19910;-47
2023/04/22 10:47:33;;;;;;;2.78;1.90;;;25.10;77.90;;;;;;5072007;28;20028;-47
2023/04/22 10:50:17;;;;;;;4.72;2.47;;;25.80;74.90;;;;;;5072433;28;20021;-51
2023/04/22 10:52:46;;;;;;;6.05;2.30;;;26.40;75.00;;;;;;5072570;28;20040;-47
2023/04/22 10:55:12;;;;;;;3.50;2.03;;;26.40;72.10;;;;;;5071867;28;20110;-52
2023/04/22 10:57:43;;;;;;;3.70;2.20;;;26.10;72.00;;;;;;5071819;28;20426;-47
2023/04/22 11:00:19;;;;;;;2.88;2.03;;;25.90;72.40;;;;;;5071979;28;20551;-49
2023/04/22 11:02:49;;;;;;;4.00;2.20;;;25.70;71.50;;;;;;5071612;28;20029;-50
2023/04/22 11:05:26;;;;;;;5.03;2.05;;;25.50;74.50;;;;;;5071758;28;20089;-48
2023/04/22 11:08:00;;;;;;;4.97;2.20;;;25.30;73.90;;;;;;5071583;28;20068;-47
2023/04/22 11:10:39;;;;;;;6.85;3.50;;;25.40;71.80;;;;;;5072025;28;20113;-47
2023/04/22 11:13:06;;;;;;;6.05;2.80;;;25.50;72.30;;;;;;5072002;28;20033;-47
2023/04/22 11:15:35;;;;;;;7.80;3.80;;;25.60;71.10;;;;;;5071495;28;20481;-49
2023/04/22 11:18:00;;;;;;;6.28;2.75;;;25.20;72.80;;;;;;5071586;28;20108;-47
2023/04/22 11:20:27;;;;;;;3.50;1.95;;;25.20;74.20;;;;;;5071413;28;20163;-50
2023/04/22 11:22:55;;;;;;;6.03;3.67;;;24.90;72.90;;;;;;5071875;28;20222;-48
2023/04/22 11:25:23;;;;;;;4.05;2.00;;;24.90;72.70;;;;;;5071414;28;20169;-47
2023/04/22 11:27:48;;;;;;;3.92;2.22;;;24.70;72.50;;;;;;5071198;28;20470;-51
2023/04/22 11:30:17;;;;;;;2.85;1.88;;;24.30;72.70;;;;;;5071793;28;20039;-47
2023/04/22 11:32:45;;;;;;;3.88;1.90;;;24.10;73.70;;;;;;5071430;28;20055;-48
2023/04/22 11:35:19;;;;;;;5.40;1.90;;;23.80;75.00;;;;;;5071036;28;20032;-50
2023/04/22 11:37:51;;;;;;;5.43;1.98;;;24.00;76.60;;;;;;5071294;28;20046;-47
2023/04/22 11:40:24;;;;;;;3.90;1.90;;;23.70;74.90;;;;;;5071274;28;20078;-50
2023/04/22 11:42:50;;;;;;;2.72;1.65;;;23.70;76.90;;;;;;5071309;28;20098;-46
2023/04/22 11:45:16;;;;;;;5.85;2.00;;;23.50;76.00;;;;;;5070769;28;20477;-47
2023/04/22 11:47:44;;;;;;;4.53;2.35;;;23.60;76.10;;;;;;5071050;28;20048;-46
2023/04/22 11:50:12;;;;;;;;;;;23.30;76.50;;;;;;5071686;28;20063;-46
2023/04/22 11:52:51;;;;;;;5.57;2.53;;;23.10;77.00;;;;;;5071371;28;20354;-48
2023/04/22 11:55:22;;;;;;;3.95;2.28;;;23.10;78.60;;;;;;5070808;28;20067;-47
2023/04/22 11:57:57;;;;;;;3.78;1.90;;;22.90;79.60;;;;;;5070689;28;20485;-48
2023/04/22 12:00:27;;;;;;;4.22;2.05;;;22.70;80.10;;;;;;5071006;28;20020;-47
2023/04/22 12:03:29;;;;;;;3.25;1.88;;;22.70;78.70;;;;;;5071008;28;20025;-51
2023/04/22 12:06:00;;;;;;;4.57;1.85;;;22.90;79.20;;;;;;5069124;28;20048;-47
2023/04/22 12:08:38;;;;;;;3.13;1.90;;;22.80;80.20;;;;;;5070679;28;20037;-47
2023/04/22 12:11:06;;;;;;;4.32;2.35;;;22.50;79.90;;;;;;5071047;28;20127;-50
2023/04/22 12:13:37;;;;;;;5.38;2.17;;;22.50;80.40;;;;;;5070550;28;20040;-47
2023/04/22 12:16:04;;;;;;;3.03;1.85;;;22.40;80.80;;;;;;5070655;28;20025;-48
2023/04/22 12:18:30;;;;;;;4.53;1.95;;;22.20;80.60;;;;;;5070908;28;20032;-49
2023/04/22 12:21:05;;;;;;;4.97;2.20;;;21.90;81.80;;;;;;5070626;28;20048;-49
2023/04/22 12:23:57;;;;;;;3.95;2.08;;;21.80;83.30;;;;;;5070519;28;20050;-48
2023/04/22 12:26:25;;;;;;;6.88;2.28;;;21.60;82.70;;;;;;5070538;28;20036;-47
2023/04/22 12:28:52;;;;;;;4.13;2.27;;;21.60;83.60;;;;;;5071189;28;20032;-51
2023/04/22 12:31:18;;;;;;;4.00;2.00;;;21.50;84.00;;;;;;5070727;28;20438;-51
2023/04/22 12:33:45;;;;;;;5.03;2.10;;;21.40;85.60;;;;;;5070749;28;20033;-49
2023/04/22 12:36:11;;;;;;;4.63;2.30;;;21.50;85.90;;;;;;5070869;28;20044;-48
2023/04/22 12:38:37;;;;;;;5.72;2.40;;;21.70;85.10;;;;;;5070536;28;20028;-48
2023/04/22 12:41:05;;;;;;;5.30;2.20;;;22.10;83.20;;;;;;5069554;28;20424;-47
2023/04/22 12:43:35;;;;;;;4.97;2.20;;;22.30;82.30;;;;;;5070388;28;20420;-48
2023/04/22 12:46:01;;;;;;;4.30;2.30;;;22.60;83.90;;;;;;5070550;28;20032;-49
2023/04/22 12:48:27;;;;;;;4.53;2.03;;;22.80;81.80;;;;;;5070422;28;20041;-50
2023/04/22 12:50:53;;;;;;;8.75;2.40;;;22.80;82.60;;;;;;5070443;28;20150;-48